Imlay, NV (89418)

10:20 PM PDT on July 23, 2017 (GMT -0700)
Grass Valley | | Change Station
Active Advisory: Fire Weather Advisory

Elev 4324 ft 40.84 °N, 117.82 °W | Updated 1 second ago

Mostly Cloudy
Mostly Cloudy
84.4 °F
Feels Like 81 °F
N
19.2
Wind Variable Wind from SE
Gusts 22.4 mph

Today
High -- | Low -- °F
--% Chance of Precip.
Yesterday
High -- | Low -- °F
Precip. -- in
Pressure 29.94 in
Visibility 4.0 miles
Clouds Few 3000 ft
Scattered Clouds 8000 ft
Mostly Cloudy 10000 ft
Heat Index 81 °F
Dew Point 24 °F
Humidity 11%
Rainfall 0.00 in
Snow Depth Not available.
5:41 AM 8:16 PM
New Moon, 1% visible
SPECI KWMC 240515Z AUTO 13026G41KT 4SM HZ FEW030 SCT080 BKN100 28/07 A2994 RMK AO2 PK WND 12041/0507 WSHFT 0455 RAB0458E09 P0000 T02830067
Pressure 29.94 in
Visibility 4.0 miles
Clouds Few 3000 ft
Scattered Clouds 8000 ft
Mostly Cloudy 10000 ft
Heat Index 81 °F
Dew Point 24 °F
Humidity 11%
Rainfall 0.00 in
Snow Depth Not available.
5:41 AM 8:16 PM
New Moon, 1% visible
SPECI KWMC 240515Z AUTO 13026G41KT 4SM HZ FEW030 SCT080 BKN100 28/07 A2994 RMK AO2 PK WND 12041/0507 WSHFT 0455 RAB0458E09 P0000 T02830067

Get Your Daily Forecast Email!

Thanks for signing up!

Be on the lookout for a verification email in your inbox.

You'll start receiving severe weather alerts in your inbox..

×

10-Day Weather Forecast

Almanac

Astronomy

Jul. 23, 2017 Rise Set
Actual Time
Civil Twilight
Nautical Twilight
Astronomical Twilight
Moon
Length of Visible Light
Length of Day
Tomorrow will be .
, % of the Moon is Illuminated

Today's Extremes

State Highs State Lows

Community

WunderPhotos

Category 6

Welcome to Category 6. This is the collective home for Weather Underground's featured writeups by Dr. Jeff Masters (right), Bob Henson (left), Chris Burt, and other regular contributors.

Nearby

Air Quality

  Air Quality AQ Index Pollutant
Not available.

Snow Depth

Station Depth Elevation

Earthquake Activity

City Distance Mag. Time & Date
Minimum magnitude displayed is 2.5.

Coastal Water Temperatures

Place Temperature

Stations

Nearby Weather Stations

Station Location Temp. Windchill Dew Point Humidity Wind Precip. Elev Updated Type
                   

Watches & Warnings

Fire Weather Advisory
Issued: 10:05 PM PDT Jul. 23, 2017 – National Weather Service

... Red flag warning is cancelled for northeast California and
northwest Nevada...

The National Weather Service in Reno has cancelled the red flag
warning.

Showers and thunderstorms are still possible through the night
although coverage of storms is expected to remain at low end
isolated. While a few starts are still possible, the threat of
more widespread starts has diminished.


Http://weather.Gov/Reno